sensor_id;sensor_type;location;lat;lon;timestamp;pressure;altitude;pressure_sealevel;temperature;humidity
49122;BME280;35529;44.342;25.944;2023-10-09T00:01:18;101393.88;;;16.00;100.00
49122;BME280;35529;44.342;25.944;2023-10-09T00:03:46;101397.31;;;16.14;99.63
49122;BME280;35529;44.342;25.944;2023-10-09T00:06:19;101402.69;;;16.07;98.22
49122;BME280;35529;44.342;25.944;2023-10-09T00:09:03;101401.47;;;16.09;99.38
49122;BME280;35529;44.342;25.944;2023-10-09T00:11:48;101415.84;;;16.22;96.37
49122;BME280;35529;44.342;25.944;2023-10-09T00:14:14;101407.41;;;16.25;95.84
49122;BME280;35529;44.342;25.944;2023-10-09T00:16:44;101411.13;;;16.24;94.25
49122;BME280;35529;44.342;25.944;2023-10-09T00:19:26;101409.66;;;16.28;96.64
49122;BME280;35529;44.342;25.944;2023-10-09T00:21:56;101413.94;;;16.42;94.52
49122;BME280;35529;44.342;25.944;2023-10-09T00:24:24;101420.47;;;16.60;92.14
49122;BME280;35529;44.342;25.944;2023-10-09T00:26:51;101410.59;;;16.47;92.33
49122;BME280;35529;44.342;25.944;2023-10-09T00:29:18;101416.81;;;16.48;93.95
49122;BME280;35529;44.342;25.944;2023-10-09T00:31:54;101415.94;;;16.54;93.95
49122;BME280;35529;44.342;25.944;2023-10-09T00:34:43;101421.19;;;16.29;82.03
49122;BME280;35529;44.342;25.944;2023-10-09T00:37:10;101425.09;;;16.26;90.87
49122;BME280;35529;44.342;25.944;2023-10-09T00:39:42;101430.09;;;16.22;91.80
49122;BME280;35529;44.342;25.944;2023-10-09T00:42:14;101437.94;;;16.11;95.17
49122;BME280;35529;44.342;25.944;2023-10-09T00:44:41;101442.09;;;16.00;86.83
49122;BME280;35529;44.342;25.944;2023-10-09T00:47:11;101448.28;;;15.80;82.89
49122;BME280;35529;44.342;25.944;2023-10-09T00:49:57;101445.16;;;15.50;90.43
49122;BME280;35529;44.342;25.944;2023-10-09T00:52:47;101453.63;;;15.53;89.90
49122;BME280;35529;44.342;25.944;2023-10-09T00:55:17;101459.81;;;15.74;88.00
49122;BME280;35529;44.342;25.944;2023-10-09T00:57:50;101462.31;;;15.82;87.29
49122;BME280;35529;44.342;25.944;2023-10-09T01:00:26;101478.38;;;15.89;81.72
49122;BME280;35529;44.342;25.944;2023-10-09T01:02:59;101488.41;;;15.73;77.28
49122;BME280;35529;44.342;25.944;2023-10-09T01:08:22;101489.44;;;15.79;86.13
49122;BME280;35529;44.342;25.944;2023-10-09T01:11:14;101490.88;;;15.62;83.74
49122;BME280;35529;44.342;25.944;2023-10-09T01:13:55;101497.66;;;15.44;81.14
49122;BME280;35529;44.342;25.944;2023-10-09T01:16:37;101507.97;;;15.47;78.89
49122;BME280;35529;44.342;25.944;2023-10-09T01:19:04;101505.44;;;15.19;71.06
49122;BME280;35529;44.342;25.944;2023-10-09T01:21:39;101516.38;;;15.31;91.43
49122;BME280;35529;44.342;25.944;2023-10-09T01:24:08;101521.97;;;15.56;88.16
49122;BME280;35529;44.342;25.944;2023-10-09T01:31:51;101521.38;;;15.61;72.29
49122;BME280;35529;44.342;25.944;2023-10-09T01:34:24;101538.25;;;15.61;76.53
49122;BME280;35529;44.342;25.944;2023-10-09T01:36:58;101532.66;;;15.49;70.08
49122;BME280;35529;44.342;25.944;2023-10-09T01:39:25;101543.81;;;15.53;75.57
49122;BME280;35529;44.342;25.944;2023-10-09T01:42:05;101551.59;;;15.34;75.31
49122;BME280;35529;44.342;25.944;2023-10-09T01:44:32;101557.19;;;15.46;82.09
49122;BME280;35529;44.342;25.944;2023-10-09T01:47:02;101559.00;;;15.46;69.79
49122;BME280;35529;44.342;25.944;2023-10-09T01:49:36;101554.44;;;15.26;70.42
49122;BME280;35529;44.342;25.944;2023-10-09T01:52:07;101564.19;;;14.99;69.91
49122;BME280;35529;44.342;25.944;2023-10-09T01:54:38;101551.72;;;15.13;80.05
49122;BME280;35529;44.342;25.944;2023-10-09T01:57:06;101562.47;;;15.26;74.60
49122;BME280;35529;44.342;25.944;2023-10-09T01:59:36;101568.19;;;15.16;77.07
49122;BME280;35529;44.342;25.944;2023-10-09T02:02:13;101566.53;;;15.08;71.24
49122;BME280;35529;44.342;25.944;2023-10-09T02:04:57;101566.09;;;15.05;81.76
49122;BME280;35529;44.342;25.944;2023-10-09T02:07:36;101553.91;;;14.96;75.90
49122;BME280;35529;44.342;25.944;2023-10-09T02:10:17;101549.31;;;14.83;76.14
49122;BME280;35529;44.342;25.944;2023-10-09T02:12:57;101554.91;;;14.88;83.12
49122;BME280;35529;44.342;25.944;2023-10-09T02:15:32;101558.38;;;14.82;78.98
49122;BME280;35529;44.342;25.944;2023-10-09T02:18:20;101553.66;;;14.55;78.28
49122;BME280;35529;44.342;25.944;2023-10-09T02:20:50;101547.44;;;14.41;77.44
49122;BME280;35529;44.342;25.944;2023-10-09T02:23:27;101549.00;;;14.07;72.92
49122;BME280;35529;44.342;25.944;2023-10-09T02:26:08;101549.44;;;13.83;75.33
49122;BME280;35529;44.342;25.944;2023-10-09T02:28:55;101561.00;;;13.47;76.64
49122;BME280;35529;44.342;25.944;2023-10-09T02:31:25;101551.59;;;13.51;79.12
49122;BME280;35529;44.342;25.944;2023-10-09T02:33:54;101566.91;;;13.64;81.33
49122;BME280;35529;44.342;25.944;2023-10-09T02:36:21;101560.56;;;13.86;79.29
49122;BME280;35529;44.342;25.944;2023-10-09T02:38:47;101567.59;;;13.94;87.64
49122;BME280;35529;44.342;25.944;2023-10-09T02:41:15;101572.03;;;14.08;82.86
49122;BME280;35529;44.342;25.944;2023-10-09T02:43:41;101579.03;;;14.38;87.50
49122;BME280;35529;44.342;25.944;2023-10-09T02:46:13;101564.47;;;14.40;76.29
49122;BME280;35529;44.342;25.944;2023-10-09T02:48:46;101575.63;;;14.22;75.21
49122;BME280;35529;44.342;25.944;2023-10-09T02:51:22;101564.03;;;14.08;74.09
49122;BME280;35529;44.342;25.944;2023-10-09T02:54:09;101564.97;;;14.01;78.30
49122;BME280;35529;44.342;25.944;2023-10-09T02:56:55;101577.41;;;13.87;72.53
49122;BME280;35529;44.342;25.944;2023-10-09T02:59:23;101570.41;;;13.64;74.31
49122;BME280;35529;44.342;25.944;2023-10-09T03:01:49;101572.78;;;13.37;74.61
49122;BME280;35529;44.342;25.944;2023-10-09T03:04:18;101586.78;;;13.10;71.97
49122;BME280;35529;44.342;25.944;2023-10-09T03:06:45;101579.53;;;12.88;74.12
49122;BME280;35529;44.342;25.944;2023-10-09T03:09:17;101585.31;;;12.77;80.98
49122;BME280;35529;44.342;25.944;2023-10-09T03:11:44;101592.22;;;12.71;79.42
49122;BME280;35529;44.342;25.944;2023-10-09T03:14:12;101592.03;;;12.58;79.58
49122;BME280;35529;44.342;25.944;2023-10-09T03:16:38;101598.38;;;12.57;78.53
49122;BME280;35529;44.342;25.944;2023-10-09T03:19:05;101599.94;;;12.51;79.72
49122;BME280;35529;44.342;25.944;2023-10-09T03:21:31;101603.97;;;12.62;81.49
49122;BME280;35529;44.342;25.944;2023-10-09T03:23:57;101601.41;;;12.54;78.60
49122;BME280;35529;44.342;25.944;2023-10-09T03:26:23;101607.91;;;12.36;77.74
49122;BME280;35529;44.342;25.944;2023-10-09T03:28:51;101604.66;;;12.26;80.93
49122;BME280;35529;44.342;25.944;2023-10-09T03:31:18;101603.06;;;12.17;81.33
49122;BME280;35529;44.342;25.944;2023-10-09T03:33:44;101608.19;;;12.18;81.75
49122;BME280;35529;44.342;25.944;2023-10-09T03:36:10;101598.53;;;12.17;82.15
49122;BME280;35529;44.342;25.944;2023-10-09T03:38:37;101602.63;;;12.28;81.51
49122;BME280;35529;44.342;25.944;2023-10-09T03:41:04;101606.75;;;12.31;82.34
49122;BME280;35529;44.342;25.944;2023-10-09T03:43:35;101614.03;;;12.37;81.44
49122;BME280;35529;44.342;25.944;2023-10-09T03:46:09;101618.69;;;12.35;83.69
49122;BME280;35529;44.342;25.944;2023-10-09T03:48:52;101605.88;;;12.38;81.82
49122;BME280;35529;44.342;25.944;2023-10-09T03:51:18;101611.00;;;12.40;78.55
49122;BME280;35529;44.342;25.944;2023-10-09T03:53:47;101621.22;;;12.36;78.92
49122;BME280;35529;44.342;25.944;2023-10-09T03:56:14;101632.38;;;12.32;77.91
49122;BME280;35529;44.342;25.944;2023-10-09T03:58:44;101630.28;;;12.27;76.94
49122;BME280;35529;44.342;25.944;2023-10-09T04:01:16;101632.94;;;12.27;75.46
49122;BME280;35529;44.342;25.944;2023-10-09T04:03:54;101628.97;;;12.23;74.93
49122;BME280;35529;44.342;25.944;2023-10-09T04:06:28;101628.63;;;12.26;75.13
49122;BME280;35529;44.342;25.944;2023-10-09T04:08:58;101635.34;;;12.37;76.26
49122;BME280;35529;44.342;25.944;2023-10-09T04:11:25;101627.66;;;12.42;75.30
49122;BME280;35529;44.342;25.944;2023-10-09T04:13:51;101628.47;;;12.43;71.17
49122;BME280;35529;44.342;25.944;2023-10-09T04:16:19;101634.25;;;12.46;73.68
49122;BME280;35529;44.342;25.944;2023-10-09T04:19:00;101625.16;;;12.40;69.45
49122;BME280;35529;44.342;25.944;2023-10-09T04:21:33;101635.16;;;12.38;71.29
49122;BME280;35529;44.342;25.944;2023-10-09T04:24:08;101640.50;;;12.53;72.24
49122;BME280;35529;44.342;25.944;2023-10-09T04:26:41;101652.75;;;12.63;69.33
49122;BME280;35529;44.342;25.944;2023-10-09T04:29:11;101651.19;;;12.68;68.80
49122;BME280;35529;44.342;25.944;2023-10-09T04:32:02;101653.03;;;12.68;69.00
49122;BME280;35529;44.342;25.944;2023-10-09T04:34:34;101656.19;;;12.71;67.59
49122;BME280;35529;44.342;25.944;2023-10-09T04:37:47;101662.63;;;12.77;69.12
49122;BME280;35529;44.342;25.944;2023-10-09T04:55:08;101690.38;;;12.83;62.86
49122;BME280;35529;44.342;25.944;2023-10-09T05:26:09;101738.78;;;12.71;60.40
49122;BME280;35529;44.342;25.944;2023-10-09T05:28:57;101740.78;;;12.69;60.07
49122;BME280;35529;44.342;25.944;2023-10-09T05:31:50;101744.31;;;12.70;59.82
49122;BME280;35529;44.342;25.944;2023-10-09T07:28:51;101787.25;;;16.09;45.36
49122;BME280;35529;44.342;25.944;2023-10-09T07:31:29;101790.31;;;15.93;43.17
49122;BME280;35529;44.342;25.944;2023-10-09T07:34:08;101785.22;;;15.76;42.24
49122;BME280;35529;44.342;25.944;2023-10-09T07:36:54;101781.91;;;15.68;41.50
49122;BME280;35529;44.342;25.944;2023-10-09T07:39:22;101787.78;;;15.50;41.54
49122;BME280;35529;44.342;25.944;2023-10-09T07:41:58;101771.88;;;15.41;40.79
49122;BME280;35529;44.342;25.944;2023-10-09T07:44:48;101776.00;;;15.44;41.47
49122;BME280;35529;44.342;25.944;2023-10-09T07:50:34;101770.31;;;15.54;40.72
49122;BME280;35529;44.342;25.944;2023-10-09T07:53:22;101771.56;;;15.58;40.84
49122;BME280;35529;44.342;25.944;2023-10-09T07:55:55;101773.41;;;15.57;40.22
49122;BME280;35529;44.342;25.944;2023-10-09T08:04:46;101746.91;;;15.69;39.60
49122;BME280;35529;44.342;25.944;2023-10-09T08:07:15;101734.56;;;15.75;40.11
49122;BME280;35529;44.342;25.944;2023-10-09T08:10:02;101732.56;;;15.84;40.09
49122;BME280;35529;44.342;25.944;2023-10-09T08:19:12;101720.94;;;16.18;39.65
49122;BME280;35529;44.342;25.944;2023-10-09T08:24:57;101715.19;;;16.35;38.75
49122;BME280;35529;44.342;25.944;2023-10-09T08:33:59;101742.97;;;16.20;37.98
49122;BME280;35529;44.342;25.944;2023-10-09T08:51:16;101709.38;;;17.18;37.03
49122;BME280;35529;44.342;25.944;2023-10-09T09:03:13;101715.19;;;17.74;36.10
49122;BME280;35529;44.342;25.944;2023-10-09T09:09:17;101706.28;;;17.28;36.22
49122;BME280;35529;44.342;25.944;2023-10-09T09:11:44;101695.13;;;17.24;36.55
49122;BME280;35529;44.342;25.944;2023-10-09T09:14:37;101699.47;;;17.19;36.36
49122;BME280;35529;44.342;25.944;2023-10-09T09:23:21;101681.69;;;17.31;36.45
49122;BME280;35529;44.342;25.944;2023-10-09T09:31:22;101686.84;;;17.26;36.76
49122;BME280;35529;44.342;25.944;2023-10-09T09:34:13;101684.56;;;17.30;36.27
49122;BME280;35529;44.342;25.944;2023-10-09T09:40:05;101676.91;;;17.33;35.88
49122;BME280;35529;44.342;25.944;2023-10-09T09:42:50;101669.84;;;17.46;36.13
49122;BME280;35529;44.342;25.944;2023-10-09T09:58:27;101646.94;;;17.82;36.10
49122;BME280;35529;44.342;25.944;2023-10-09T10:21:22;101578.81;;;18.26;35.93
49122;BME280;35529;44.342;25.944;2023-10-09T10:35:35;101559.53;;;18.11;36.07
49122;BME280;35529;44.342;25.944;2023-10-09T10:38:32;101554.97;;;18.12;36.23
49122;BME280;35529;44.342;25.944;2023-10-09T10:43:42;101521.63;;;18.19;36.52
49122;BME280;35529;44.342;25.944;2023-10-09T10:46:18;101513.91;;;18.23;36.24
49122;BME280;35529;44.342;25.944;2023-10-09T10:48:50;101513.44;;;18.33;36.53
49122;BME280;35529;44.342;25.944;2023-10-09T10:51:25;101516.41;;;18.43;36.70
49122;BME280;35529;44.342;25.944;2023-10-09T10:54:01;101503.25;;;18.53;36.71
49122;BME280;35529;44.342;25.944;2023-10-09T10:56:47;101489.16;;;18.58;36.37
49122;BME280;35529;44.342;25.944;2023-10-09T10:59:14;101484.22;;;18.55;36.29
49122;BME280;35529;44.342;25.944;2023-10-09T11:01:49;101482.59;;;18.54;36.54
49122;BME280;35529;44.342;25.944;2023-10-09T11:04:24;101464.41;;;18.49;36.92
49122;BME280;35529;44.342;25.944;2023-10-09T11:07:04;101461.97;;;18.48;37.36
49122;BME280;35529;44.342;25.944;2023-10-09T11:09:51;101452.84;;;18.49;37.56
49122;BME280;35529;44.342;25.944;2023-10-09T11:12:32;101436.34;;;18.45;38.20
49122;BME280;35529;44.342;25.944;2023-10-09T11:15:32;101434.09;;;18.61;37.86
49122;BME280;35529;44.342;25.944;2023-10-09T11:18:22;101420.09;;;18.70;37.36
49122;BME280;35529;44.342;25.944;2023-10-09T11:20:53;101410.75;;;18.73;36.98
49122;BME280;35529;44.342;25.944;2023-10-09T11:23:32;101415.75;;;18.69;37.18
49122;BME280;35529;44.342;25.944;2023-10-09T11:26:19;101411.66;;;18.67;37.32
49122;BME280;35529;44.342;25.944;2023-10-09T11:31:41;101395.22;;;18.56;37.72
49122;BME280;35529;44.342;25.944;2023-10-09T11:34:17;101392.09;;;18.59;37.49
49122;BME280;35529;44.342;25.944;2023-10-09T11:36:55;101396.53;;;18.54;37.75
49122;BME280;35529;44.342;25.944;2023-10-09T11:39:25;101405.69;;;18.65;37.61
49122;BME280;35529;44.342;25.944;2023-10-09T11:42:01;101391.44;;;18.76;37.76
49122;BME280;35529;44.342;25.944;2023-10-09T11:44:40;101387.63;;;18.84;37.44
49122;BME280;35529;44.342;25.944;2023-10-09T11:47:07;101383.66;;;18.86;37.43
49122;BME280;35529;44.342;25.944;2023-10-09T11:49:52;101364.97;;;18.91;37.21
49122;BME280;35529;44.342;25.944;2023-10-09T11:52:54;101366.72;;;18.98;37.39
49122;BME280;35529;44.342;25.944;2023-10-09T11:55:36;101362.63;;;18.95;37.10
49122;BME280;35529;44.342;25.944;2023-10-09T11:58:13;101359.25;;;19.00;37.15
49122;BME280;35529;44.342;25.944;2023-10-09T12:07:08;101358.97;;;18.59;37.81
49122;BME280;35529;44.342;25.944;2023-10-09T12:09:38;101349.09;;;18.71;38.04
49122;BME280;35529;44.342;25.944;2023-10-09T12:12:10;101335.09;;;18.81;38.31
49122;BME280;35529;44.342;25.944;2023-10-09T12:14:59;101316.53;;;18.91;38.75
49122;BME280;35529;44.342;25.944;2023-10-09T12:17:30;101307.94;;;18.83;38.74
49122;BME280;35529;44.342;25.944;2023-10-09T12:19:57;101310.63;;;18.83;38.41
49122;BME280;35529;44.342;25.944;2023-10-09T12:22:24;101311.22;;;18.73;37.70
49122;BME280;35529;44.342;25.944;2023-10-09T12:24:52;101311.19;;;18.61;37.92
49122;BME280;35529;44.342;25.944;2023-10-09T12:27:19;101303.56;;;18.70;37.87
49122;BME280;35529;44.342;25.944;2023-10-09T12:29:48;101303.84;;;18.80;38.08
49122;BME280;35529;44.342;25.944;2023-10-09T12:32:15;101299.19;;;18.87;37.56
49122;BME280;35529;44.342;25.944;2023-10-09T12:34:45;101297.09;;;18.89;37.77
49122;BME280;35529;44.342;25.944;2023-10-09T12:37:11;101298.41;;;18.99;37.73
49122;BME280;35529;44.342;25.944;2023-10-09T12:39:38;101296.66;;;19.04;37.99
49122;BME280;35529;44.342;25.944;2023-10-09T12:42:06;101292.56;;;19.14;38.01
49122;BME280;35529;44.342;25.944;2023-10-09T12:44:35;101284.13;;;19.22;37.78
49122;BME280;35529;44.342;25.944;2023-10-09T12:47:08;101272.56;;;19.33;37.58
49122;BME280;35529;44.342;25.944;2023-10-09T12:49:37;101268.63;;;19.53;37.46
49122;BME280;35529;44.342;25.944;2023-10-09T12:52:10;101279.38;;;19.76;37.21
49122;BME280;35529;44.342;25.944;2023-10-09T12:54:42;101282.44;;;19.92;36.56
49122;BME280;35529;44.342;25.944;2023-10-09T12:57:11;101288.00;;;20.02;36.34
49122;BME280;35529;44.342;25.944;2023-10-09T13:14:53;101239.72;;;20.01;36.17
49122;BME280;35529;44.342;25.944;2023-10-09T13:17:20;101237.31;;;20.33;36.10
49122;BME280;35529;44.342;25.944;2023-10-09T13:19:50;101236.38;;;20.56;36.00
49122;BME280;35529;44.342;25.944;2023-10-09T13:36:22;101187.09;;;20.27;35.42
49122;BME280;35529;44.342;25.944;2023-10-09T13:38:59;101186.59;;;20.47;35.35
49122;BME280;35529;44.342;25.944;2023-10-09T13:41:47;101180.53;;;20.57;35.24
49122;BME280;35529;44.342;25.944;2023-10-09T13:44:14;101182.50;;;20.27;34.34
49122;BME280;35529;44.342;25.944;2023-10-09T13:46:40;101164.78;;;19.86;35.22
49122;BME280;35529;44.342;25.944;2023-10-09T13:49:10;101173.16;;;20.01;36.09
49122;BME280;35529;44.342;25.944;2023-10-09T13:51:41;101174.69;;;19.68;35.46
49122;BME280;35529;44.342;25.944;2023-10-09T13:54:10;101176.06;;;19.71;35.63
49122;BME280;35529;44.342;25.944;2023-10-09T13:56:44;101157.44;;;19.81;35.90
49122;BME280;35529;44.342;25.944;2023-10-09T13:59:10;101155.75;;;19.92;36.04
49122;BME280;35529;44.342;25.944;2023-10-09T14:01:36;101164.34;;;20.06;36.39
49122;BME280;35529;44.342;25.944;2023-10-09T14:04:05;101164.94;;;20.08;35.91
49122;BME280;35529;44.342;25.944;2023-10-09T14:06:34;101159.69;;;20.01;35.84
49122;BME280;35529;44.342;25.944;2023-10-09T14:09:01;101153.81;;;20.04;36.13
49122;BME280;35529;44.342;25.944;2023-10-09T14:11:31;101138.69;;;20.03;36.27
49122;BME280;35529;44.342;25.944;2023-10-09T14:13:57;101142.44;;;20.02;36.28
49122;BME280;35529;44.342;25.944;2023-10-09T14:16:26;101132.78;;;20.06;36.64
49122;BME280;35529;44.342;25.944;2023-10-09T14:18:58;101134.19;;;20.09;36.70
49122;BME280;35529;44.342;25.944;2023-10-09T14:21:33;101131.25;;;20.10;36.89
49122;BME280;35529;44.342;25.944;2023-10-09T14:24:04;101124.25;;;20.09;37.02
49122;BME280;35529;44.342;25.944;2023-10-09T14:26:41;101123.91;;;20.06;37.57
49122;BME280;35529;44.342;25.944;2023-10-09T14:29:07;101129.34;;;19.94;36.95
49122;BME280;35529;44.342;25.944;2023-10-09T14:31:33;101130.13;;;19.77;36.31
49122;BME280;35529;44.342;25.944;2023-10-09T14:34:04;101111.31;;;19.66;36.32
49122;BME280;35529;44.342;25.944;2023-10-09T14:36:31;101093.66;;;19.58;36.73
49122;BME280;35529;44.342;25.944;2023-10-09T14:39:00;101092.59;;;19.59;37.12
49122;BME280;35529;44.342;25.944;2023-10-09T14:41:26;101082.88;;;19.58;37.43
49122;BME280;35529;44.342;25.944;2023-10-09T14:43:54;101076.94;;;19.56;37.48
49122;BME280;35529;44.342;25.944;2023-10-09T14:46:20;101079.53;;;19.51;37.61
49122;BME280;35529;44.342;25.944;2023-10-09T14:49:05;101081.38;;;19.33;37.80
49122;BME280;35529;44.342;25.944;2023-10-09T15:59:13;101037.81;;;16.86;44.95
49122;BME280;35529;44.342;25.944;2023-10-09T16:01:39;101033.56;;;16.78;45.18
49122;BME280;35529;44.342;25.944;2023-10-09T16:04:08;101026.66;;;16.70;45.54
49122;BME280;35529;44.342;25.944;2023-10-09T16:06:36;101024.03;;;16.64;45.85
49122;BME280;35529;44.342;25.944;2023-10-09T16:09:05;101044.50;;;16.58;46.48
49122;BME280;35529;44.342;25.944;2023-10-09T16:11:32;101042.72;;;16.52;46.57
49122;BME280;35529;44.342;25.944;2023-10-09T16:13:59;101050.00;;;16.45;47.29
49122;BME280;35529;44.342;25.944;2023-10-09T16:16:26;101047.03;;;16.34;47.32
49122;BME280;35529;44.342;25.944;2023-10-09T16:18:52;101042.09;;;16.31;47.45
49122;BME280;35529;44.342;25.944;2023-10-09T16:21:18;101044.97;;;16.30;47.87
49122;BME280;35529;44.342;25.944;2023-10-09T16:23:45;101037.16;;;16.28;48.51
49122;BME280;35529;44.342;25.944;2023-10-09T16:26:15;101032.03;;;16.27;48.26
49122;BME280;35529;44.342;25.944;2023-10-09T16:28:42;101032.63;;;16.29;48.10
49122;BME280;35529;44.342;25.944;2023-10-09T16:31:08;101024.59;;;16.29;48.26
49122;BME280;35529;44.342;25.944;2023-10-09T16:33:40;101024.06;;;16.20;48.30
49122;BME280;35529;44.342;25.944;2023-10-09T16:36:06;101015.41;;;16.18;48.21
49122;BME280;35529;44.342;25.944;2023-10-09T16:38:33;101028.22;;;16.16;48.44
49122;BME280;35529;44.342;25.944;2023-10-09T16:41:05;101027.44;;;16.08;48.94
49122;BME280;35529;44.342;25.944;2023-10-09T16:43:35;101013.06;;;16.03;48.65
49122;BME280;35529;44.342;25.944;2023-10-09T16:46:03;101010.41;;;16.03;48.83
49122;BME280;35529;44.342;25.944;2023-10-09T16:48:34;101006.69;;;16.04;49.06
49122;BME280;35529;44.342;25.944;2023-10-09T16:51:03;101013.53;;;16.00;49.26
49122;BME280;35529;44.342;25.944;2023-10-09T16:53:37;101027.41;;;15.90;50.04
49122;BME280;35529;44.342;25.944;2023-10-09T16:56:05;101019.66;;;15.75;50.61
49122;BME280;35529;44.342;25.944;2023-10-09T16:58:37;101016.25;;;15.61;50.08
49122;BME280;35529;44.342;25.944;2023-10-09T17:01:07;101020.94;;;15.66;50.20
49122;BME280;35529;44.342;25.944;2023-10-09T17:03:45;101016.84;;;15.63;51.01
49122;BME280;35529;44.342;25.944;2023-10-09T17:06:22;101012.09;;;15.65;50.59
49122;BME280;35529;44.342;25.944;2023-10-09T17:08:56;101022.16;;;15.70;49.71
49122;BME280;35529;44.342;25.944;2023-10-09T17:11:23;101008.72;;;15.76;49.43
49122;BME280;35529;44.342;25.944;2023-10-09T17:13:50;101011.59;;;15.82;48.87
49122;BME280;35529;44.342;25.944;2023-10-09T17:16:20;101007.25;;;15.87;48.86
49122;BME280;35529;44.342;25.944;2023-10-09T17:18:47;101018.09;;;15.92;48.05
49122;BME280;35529;44.342;25.944;2023-10-09T17:21:17;101023.63;;;15.98;47.68
49122;BME280;35529;44.342;25.944;2023-10-09T17:23:49;101021.13;;;16.03;47.85
49122;BME280;35529;44.342;25.944;2023-10-09T17:26:16;101017.25;;;15.99;47.61
49122;BME280;35529;44.342;25.944;2023-10-09T17:28:48;101001.97;;;15.99;48.07
49122;BME280;35529;44.342;25.944;2023-10-09T17:31:17;101009.44;;;15.97;48.43
49122;BME280;35529;44.342;25.944;2023-10-09T17:33:46;101009.03;;;15.94;48.67
49122;BME280;35529;44.342;25.944;2023-10-09T17:36:14;101001.22;;;15.92;48.84
49122;BME280;35529;44.342;25.944;2023-10-09T17:38:46;100986.41;;;15.89;49.03
49122;BME280;35529;44.342;25.944;2023-10-09T17:41:16;100976.09;;;15.93;49.44
49122;BME280;35529;44.342;25.944;2023-10-09T17:43:45;100981.00;;;15.96;49.68
49122;BME280;35529;44.342;25.944;2023-10-09T17:46:13;100989.66;;;15.98;50.06
49122;BME280;35529;44.342;25.944;2023-10-09T17:48:39;100985.31;;;15.97;50.15
49122;BME280;35529;44.342;25.944;2023-10-09T17:51:11;100983.44;;;15.98;50.36
49122;BME280;35529;44.342;25.944;2023-10-09T17:53:40;100989.66;;;15.98;50.26
49122;BME280;35529;44.342;25.944;2023-10-09T17:56:07;100989.66;;;15.98;50.41
49122;BME280;35529;44.342;25.944;2023-10-09T17:58:36;100990.22;;;16.00;50.61
49122;BME280;35529;44.342;25.944;2023-10-09T18:01:02;100990.00;;;16.02;50.33
49122;BME280;35529;44.342;25.944;2023-10-09T18:03:34;100996.78;;;16.04;49.98
49122;BME280;35529;44.342;25.944;2023-10-09T18:06:03;100988.53;;;16.06;49.79
49122;BME280;35529;44.342;25.944;2023-10-09T18:08:30;100982.53;;;16.11;49.53
49122;BME280;35529;44.342;25.944;2023-10-09T18:10:56;100973.00;;;16.15;49.86
49122;BME280;35529;44.342;25.944;2023-10-09T18:13:25;100976.66;;;16.20;50.63
49122;BME280;35529;44.342;25.944;2023-10-09T18:16:00;100971.06;;;16.22;51.25
49122;BME280;35529;44.342;25.944;2023-10-09T18:18:34;100980.34;;;16.19;51.67
49122;BME280;35529;44.342;25.944;2023-10-09T18:21:05;100987.00;;;16.17;52.04
49122;BME280;35529;44.342;25.944;2023-10-09T18:23:32;100987.88;;;16.11;52.23
49122;BME280;35529;44.342;25.944;2023-10-09T18:25:58;100992.84;;;16.07;51.12
49122;BME280;35529;44.342;25.944;2023-10-09T18:28:29;100986.47;;;16.08;50.81
49122;BME280;35529;44.342;25.944;2023-10-09T18:30:56;100976.34;;;16.10;50.78
49122;BME280;35529;44.342;25.944;2023-10-09T18:33:22;100978.41;;;16.08;50.96
49122;BME280;35529;44.342;25.944;2023-10-09T18:35:51;100969.34;;;16.09;51.40
49122;BME280;35529;44.342;25.944;2023-10-09T18:38:17;100961.09;;;16.11;51.75
49122;BME280;35529;44.342;25.944;2023-10-09T18:40:43;100950.38;;;16.11;52.33
49122;BME280;35529;44.342;25.944;2023-10-09T18:43:24;100956.31;;;16.13;52.89
49122;BME280;35529;44.342;25.944;2023-10-09T18:45:53;100941.53;;;16.10;53.22
49122;BME280;35529;44.342;25.944;2023-10-09T18:48:20;100943.38;;;16.09;53.71
49122;BME280;35529;44.342;25.944;2023-10-09T18:50:48;100937.44;;;16.07;53.99
49122;BME280;35529;44.342;25.944;2023-10-09T18:53:14;100937.44;;;16.07;54.02
49122;BME280;35529;44.342;25.944;2023-10-09T18:55:41;100949.75;;;16.08;53.83
49122;BME280;35529;44.342;25.944;2023-10-09T18:58:07;100947.09;;;16.08;53.67
49122;BME280;35529;44.342;25.944;2023-10-09T19:00:36;100948.72;;;16.09;53.47
49122;BME280;35529;44.342;25.944;2023-10-09T19:03:07;100940.69;;;16.09;52.99
49122;BME280;35529;44.342;25.944;2023-10-09T19:05:45;100927.28;;;16.09;52.60
49122;BME280;35529;44.342;25.944;2023-10-09T19:08:13;100919.25;;;16.09;52.65
49122;BME280;35529;44.342;25.944;2023-10-09T19:10:40;100919.25;;;16.09;52.66
49122;BME280;35529;44.342;25.944;2023-10-09T19:13:12;100910.84;;;16.06;52.50
49122;BME280;35529;44.342;25.944;2023-10-09T19:15:40;100926.91;;;16.06;52.29
49122;BME280;35529;44.342;25.944;2023-10-09T19:18:07;100924.22;;;16.06;52.05
49122;BME280;35529;44.342;25.944;2023-10-09T19:20:46;100928.78;;;16.05;51.50
49122;BME280;35529;44.342;25.944;2023-10-09T19:23:13;100948.00;;;16.02;51.34
49122;BME280;35529;44.342;25.944;2023-10-09T19:25:42;100953.19;;;15.97;51.12
49122;BME280;35529;44.342;25.944;2023-10-09T19:28:08;100954.66;;;15.93;50.56
49122;BME280;35529;44.342;25.944;2023-10-09T19:30:35;100941.84;;;15.95;50.44
49122;BME280;35529;44.342;25.944;2023-10-09T19:33:04;100942.69;;;15.96;50.39
49122;BME280;35529;44.342;25.944;2023-10-09T19:35:31;100938.16;;;15.96;50.46